Upstream stations:
Downstream station:
SHEF ID: MRIT2 Lake Meredith
STATION TYPE: RESERVOIR
Flood Pool: Bottom = 2941.30, Top = 2965.00
ELEVATION STORAGE INFLOW RELEASE WIND-DIRWIND-SPEED
ft ac-ft cfs cfs deg mph
Ccp-Rev Ccp-Rev Rev-Regi Rev-Regi Ccp-Rev Ccp-Rev
(US/Central)
05/11 00:00 2883.76 205492 9 0 127.00 16.00
05/11 01:00 2883.66 204818 6 0 127.00 17.00
05/11 02:00 2883.53 203942 4 0 130.00 20.00
05/11 03:00 2883.58 204280 4 0 252.00 5.00
05/11 04:00 2883.65 204751 4 0 174.00 5.00
05/11 05:00 2883.67 204886 4 0 161.00 13.00
05/11 06:00 2883.65 204751 2 0 210.00 4.00
05/11 07:00 2883.61 204482 0 0 187.00 6.00
05/11 08:00 2883.63 204617 0 0 ---- ----
05/11 09:00 2883.65 204751 0 0 ---- ----
05/11 10:00 2883.64 204684 0 0 ---- ----
05/11 11:00 2883.65 204751 0 0 ---- ----
05/11 12:00 2883.66 204818 0 0 ---- ----
05/11 13:00 2883.68 204953 0 0 ---- ----
05/11 14:00 2883.64 204684 0 0 ---- ----
05/11 15:00 2883.64 204684 0 0 ---- ----
05/11 16:00 2883.65 204751 0 0 ---- ----
05/11 17:00 2883.67 204886 0 0 ---- ----
05/11 18:00 2883.68 204953 0 0 ---- ----
05/11 19:00 2883.67 204886 0 0 ---- ----
05/11 20:00 2883.68 204953 0 0 ---- ----
05/11 21:00 2883.70 205088 0 0 ---- ----
05/11 22:00 2883.67 204886 0 0 ---- ----
05/11 23:00 2883.67 204886 0 0 ---- ----